This is the latest recevied weather packets stored in our database for station/object KI4BIY. If no packets are shown the sender has not sent any weather packets the latest 10 day(s).
| Time | Temp. | Humidity | Pressure | Rain* | Wind** | Luminosity | Snow |
|---|---|---|---|---|---|---|---|
| 1777832863 | 22.22° C | 39% | 1019 hPa | 0 mm | - | 691 W/m² | - |
| 1777832562 | 22.22° C | 40% | 1018.9 hPa | 0 mm | - | 704 W/m² | - |
| 1777832258 | 22.22° C | 41% | 1019.3 hPa | 0 mm | - | 661 W/m² | - |
| 1777831955 | 22.22° C | 38% | 1019.3 hPa | 0 mm | - | 678 W/m² | - |
| 1777831651 | 22.22° C | 38% | 1019.4 hPa | 0 mm | - | 655 W/m² | - |
| 1777831350 | 22.22° C | 39% | 1019.6 hPa | 0 mm | - | 624 W/m² | - |
| 1777831046 | 21.67° C | 39% | 1019.6 hPa | 0 mm | - | 589 W/m² | - |
| 1777830745 | 21.67° C | 39% | 1019.7 hPa | 0 mm | - | 638 W/m² | - |
| 1777830440 | 21.67° C | 41% | 1019.6 hPa | 0 mm | - | 703 W/m² | - |
| 1777830138 | 21.67° C | 39% | 1020.1 hPa | 0 mm | - | 737 W/m² | - |
| 1777829833 | 21.11° C | 39% | 1019.9 hPa | 0 mm | - | 718 W/m² | - |
| 1777829529 | 20.56° C | 47% | 1019.8 hPa | 0 mm | - | 675 W/m² | - |
| 1777829226 | 22.22° C | 41% | 1020.1 hPa | 0 mm | - | 666 W/m² | - |
| 1777828923 | 21.67° C | 43% | 1020.1 hPa | 0 mm | - | 741 W/m² | - |
| 1777828620 | 21.11° C | 42% | 1020.1 hPa | 0 mm | - | 669 W/m² | - |
| 1777828317 | 21.11° C | 43% | 1020.2 hPa | 0 mm | - | 571 W/m² | - |
| 1777828014 | 21.67° C | 41% | 1020.4 hPa | 0 mm | - | 511 W/m² | - |
| 1777827711 | 21.11° C | 41% | 1020.4 hPa | 0 mm | - | 575 W/m² | - |
| 1777827408 | 21.11° C | 41% | 1020.6 hPa | 0 mm | - | 649 W/m² | - |
| 1777827104 | 21.11° C | 41% | 1020.5 hPa | 0 mm | - | 732 W/m² | - |
| 1777826801 | 20.56° C | 44% | 1020.6 hPa | 0 mm | - | 702 W/m² | - |
| 1777826498 | 21.11° C | 44% | 1020.9 hPa | 0 mm | - | 695 W/m² | - |
| 1777826195 | 21.11° C | 43% | 1020.7 hPa | 0 mm | - | 727 W/m² | - |
| 1777825892 | 20.56° C | 45% | 1020.8 hPa | 0 mm | - | 716 W/m² | - |
| 1777825589 | 20° C | 44% | 1020.8 hPa | 0 mm | - | 713 W/m² | - |
* Rain latest hour (hover to see other rain measurements)
** Current wind speed in m/s (hover to see current wind gust speed)